createdAt,value
2018-01-27T00:00:47.892Z,6.35
2018-01-27T00:01:47.880Z,6.39
2018-01-27T00:02:47.858Z,6.50
2018-01-27T00:03:47.846Z,6.55
2018-01-27T00:04:47.832Z,6.51
2018-01-27T00:05:47.814Z,6.51
2018-01-27T00:06:47.797Z,6.50
2018-01-27T00:07:47.780Z,6.53
2018-01-27T00:08:47.768Z,6.45
2018-01-27T00:09:47.750Z,6.48
2018-01-27T00:10:47.734Z,6.46
2018-01-27T00:11:47.720Z,6.48
2018-01-27T00:12:47.704Z,6.53
2018-01-27T00:13:47.687Z,6.46
2018-01-27T00:14:47.673Z,6.45
2018-01-27T00:15:47.666Z,6.33
2018-01-27T00:16:47.657Z,6.28
2018-01-27T00:17:47.626Z,6.35
2018-01-27T00:18:47.610Z,6.32
2018-01-27T00:19:47.597Z,6.30
2018-01-27T00:20:47.582Z,6.30
2018-01-27T00:21:47.570Z,6.33
2018-01-27T00:22:47.553Z,6.30
2018-01-27T00:23:47.533Z,6.38
2018-01-27T00:24:47.518Z,6.32
2018-01-27T00:25:47.499Z,6.40
2018-01-27T00:26:47.483Z,6.46
2018-01-27T00:27:47.469Z,6.45
2018-01-27T00:28:47.459Z,6.50
2018-01-27T00:29:47.437Z,6.50
2018-01-27T00:30:47.421Z,6.63
2018-01-27T00:31:47.408Z,6.64
2018-01-27T00:32:47.390Z,6.73
2018-01-27T00:33:47.374Z,6.76
2018-01-27T00:34:47.365Z,6.68
2018-01-27T00:35:47.343Z,6.60
2018-01-27T00:36:47.328Z,6.50
2018-01-27T00:37:47.314Z,6.50
2018-01-27T00:38:47.301Z,6.40
2018-01-27T00:39:47.280Z,6.39
2018-01-27T00:40:47.263Z,6.48
2018-01-27T00:41:47.253Z,6.43
2018-01-27T00:42:47.231Z,6.30
2018-01-27T00:43:47.217Z,6.25
2018-01-27T00:44:47.202Z,6.28
2018-01-27T00:45:47.187Z,6.32
2018-01-27T00:46:47.169Z,6.25
2018-01-27T00:47:47.159Z,6.38
2018-01-27T00:48:47.143Z,6.21
2018-01-27T00:49:47.123Z,6.32
2018-01-27T00:50:47.113Z,6.13
2018-01-27T00:51:47.091Z,6.24
2018-01-27T00:52:47.075Z,6.28
2018-01-27T00:53:47.058Z,6.33
2018-01-27T00:54:47.041Z,6.46
2018-01-27T00:55:47.028Z,6.43
2018-01-27T00:56:47.018Z,6.50
2018-01-27T00:57:46.996Z,6.43
2018-01-27T00:58:46.980Z,6.43
2018-01-27T00:59:46.963Z,6.45
2018-01-27T01:00:46.951Z,6.57
2018-01-27T01:01:46.932Z,6.43
2018-01-27T01:02:46.923Z,6.46
2018-01-27T01:03:46.903Z,6.45
2018-01-27T01:04:46.884Z,6.36
2018-01-27T01:05:46.870Z,6.35
2018-01-27T01:06:46.854Z,6.30
2018-01-27T01:07:46.836Z,6.32
2018-01-27T01:08:46.823Z,6.36
2018-01-27T01:09:46.804Z,6.35
2018-01-27T01:10:46.790Z,6.33
2018-01-27T01:11:46.776Z,6.39
2018-01-27T01:12:46.757Z,6.28
2018-01-27T01:13:46.742Z,6.36
2018-01-27T01:14:46.731Z,6.30
2018-01-27T01:15:46.712Z,6.25
2018-01-27T01:16:46.695Z,6.25
2018-01-27T01:17:46.684Z,6.24
2018-01-27T01:18:46.668Z,6.32
2018-01-27T01:19:46.648Z,6.35
2018-01-27T01:20:46.639Z,6.38
2018-01-27T01:21:46.614Z,6.25
2018-01-27T01:22:46.606Z,6.33
2018-01-27T01:23:46.584Z,6.36
2018-01-27T01:24:46.568Z,6.33
2018-01-27T01:25:46.557Z,6.35
2018-01-27T01:26:46.536Z,6.36
2018-01-27T01:27:46.526Z,6.32
2018-01-27T01:28:46.512Z,6.35
2018-01-27T01:29:46.492Z,6.33
2018-01-27T01:30:46.476Z,6.38
2018-01-27T01:31:46.466Z,6.30
2018-01-27T01:32:46.446Z,6.33
2018-01-27T01:33:46.426Z,6.35
2018-01-27T01:34:46.419Z,6.28
2018-01-27T01:35:46.402Z,6.46
2018-01-27T01:36:46.385Z,6.46
2018-01-27T01:37:46.373Z,6.45
2018-01-27T01:38:46.348Z,6.42
2018-01-27T01:39:46.332Z,6.43
2018-01-27T01:40:46.317Z,6.54
2018-01-27T01:41:46.308Z,6.69
2018-01-27T01:42:46.284Z,6.65
2018-01-27T01:43:46.270Z,6.71
2018-01-27T01:44:46.254Z,6.86
2018-01-27T01:45:46.237Z,6.78
2018-01-27T01:46:46.222Z,6.83
2018-01-27T01:47:46.215Z,6.78
2018-01-27T01:48:46.194Z,6.78
2018-01-27T01:49:46.178Z,6.86
2018-01-27T01:50:46.161Z,6.81
2018-01-27T01:51:46.146Z,6.89
2018-01-27T01:52:46.129Z,6.86
2018-01-27T01:53:46.115Z,6.89
2018-01-27T01:54:46.099Z,6.90
2018-01-27T01:55:46.084Z,6.99
2018-01-27T01:56:46.072Z,6.93
2018-01-27T01:57:46.058Z,7.04
2018-01-27T01:58:46.040Z,6.91
2018-01-27T01:59:46.022Z,6.91
2018-01-27T02:00:46.008Z,6.90
2018-01-27T02:01:45.992Z,6.86
2018-01-27T02:02:45.977Z,6.68
2018-01-27T02:03:45.965Z,6.72
2018-01-27T02:04:45.946Z,6.60
2018-01-27T02:05:45.942Z,6.51
2018-01-27T02:06:45.915Z,6.55
2018-01-27T02:07:45.902Z,6.61
2018-01-27T02:08:45.885Z,6.63
2018-01-27T02:09:45.872Z,6.63
2018-01-27T02:10:45.860Z,6.69
2018-01-27T02:11:45.839Z,6.68
2018-01-27T02:12:45.829Z,6.63
2018-01-27T02:13:45.811Z,6.64
2018-01-27T02:14:45.795Z,6.71
2018-01-27T02:15:45.778Z,6.64
2018-01-27T02:16:45.762Z,6.65
2018-01-27T02:17:45.749Z,6.64
2018-01-27T02:18:45.736Z,6.54
2018-01-27T02:19:45.721Z,6.58
2018-01-27T02:20:45.701Z,6.65
2018-01-27T02:21:45.686Z,6.63
2018-01-27T02:22:45.668Z,6.61
2018-01-27T02:23:45.653Z,6.72
2018-01-27T02:24:45.639Z,6.73
2018-01-27T02:25:45.632Z,6.76
2018-01-27T02:26:45.607Z,6.72
2018-01-27T02:27:45.595Z,6.78
2018-01-27T02:28:45.579Z,6.79
2018-01-27T02:29:45.562Z,6.83
2018-01-27T02:30:45.546Z,6.87
2018-01-27T02:31:45.538Z,6.82
2018-01-27T02:32:45.516Z,6.73
2018-01-27T02:33:45.499Z,6.76
2018-01-27T02:34:45.487Z,6.71
2018-01-27T02:35:45.468Z,6.72
2018-01-27T02:36:45.455Z,6.68
2018-01-27T02:37:45.441Z,6.71
2018-01-27T02:38:45.423Z,6.78
2018-01-27T02:39:45.412Z,6.72
2018-01-27T02:40:45.394Z,6.81
2018-01-27T02:41:45.386Z,6.73
2018-01-27T02:42:45.361Z,6.86
2018-01-27T02:43:45.348Z,6.83
2018-01-27T02:44:45.334Z,6.75
2018-01-27T02:45:45.325Z,6.89
2018-01-27T02:46:45.304Z,6.87
2018-01-27T02:47:45.287Z,6.93
2018-01-27T02:48:45.273Z,6.81
2018-01-27T02:49:45.259Z,6.83
2018-01-27T02:50:45.245Z,6.86
2018-01-27T02:51:45.236Z,6.79
2018-01-27T02:52:45.214Z,6.79
2018-01-27T02:53:45.204Z,6.69
2018-01-27T02:54:45.184Z,6.75
2018-01-27T02:55:45.167Z,6.68
2018-01-27T02:56:45.155Z,6.61
2018-01-27T02:57:45.145Z,6.65
2018-01-27T02:58:45.127Z,6.68
2018-01-27T02:59:45.115Z,6.63
2018-01-27T03:00:45.094Z,6.61
2018-01-27T03:01:45.080Z,6.61
2018-01-27T03:02:45.070Z,6.53
2018-01-27T03:03:45.052Z,6.46
2018-01-27T03:04:45.032Z,6.51
2018-01-27T03:05:45.017Z,6.48
2018-01-27T03:06:45.002Z,6.45
2018-01-27T03:07:44.986Z,6.46
2018-01-27T03:08:44.976Z,6.46
2018-01-27T03:09:44.954Z,6.61
2018-01-27T03:10:44.939Z,6.63
2018-01-27T03:11:44.934Z,6.73
2018-01-27T03:12:44.911Z,6.69
2018-01-27T03:13:44.892Z,6.73
2018-01-27T03:14:44.877Z,6.73
2018-01-27T03:15:44.874Z,6.79
2018-01-27T03:16:44.847Z,6.76
2018-01-27T03:17:44.837Z,6.79
2018-01-27T03:18:44.824Z,6.83
2018-01-27T03:19:44.801Z,6.71
2018-01-27T03:20:44.787Z,6.87
2018-01-27T03:21:44.771Z,6.78
2018-01-27T03:22:44.755Z,6.79
2018-01-27T03:23:44.741Z,6.87
2018-01-27T03:24:44.727Z,6.79
2018-01-27T03:25:44.712Z,6.87
2018-01-27T03:26:44.701Z,6.78
2018-01-27T03:27:44.681Z,6.78
2018-01-27T03:28:44.664Z,6.89
2018-01-27T03:29:44.650Z,7.00
2018-01-27T03:30:44.639Z,6.99
2018-01-27T03:31:44.630Z,6.94
2018-01-27T03:32:44.612Z,7.00
2018-01-27T03:33:44.596Z,7.15
2018-01-27T03:34:44.581Z,7.33
2018-01-27T03:35:44.563Z,7.44
2018-01-27T03:36:44.548Z,7.34
2018-01-27T03:37:44.538Z,7.23
2018-01-27T03:38:44.518Z,7.39
2018-01-27T03:39:44.502Z,7.50
2018-01-27T03:40:44.498Z,7.39
2018-01-27T03:41:44.471Z,7.37
2018-01-27T03:42:44.459Z,7.42
2018-01-27T03:43:44.443Z,7.23
2018-01-27T03:44:44.432Z,7.14
2018-01-27T03:45:44.414Z,6.99
2018-01-27T03:46:44.404Z,7.04
2018-01-27T03:47:44.385Z,7.04
2018-01-27T03:48:44.370Z,6.97
2018-01-27T03:49:44.355Z,6.91
2018-01-27T03:50:44.340Z,6.93
2018-01-27T03:51:44.331Z,7.00
2018-01-27T03:52:44.311Z,6.87
2018-01-27T03:53:44.297Z,6.94
2018-01-27T03:54:44.282Z,6.93
2018-01-27T03:55:44.267Z,7.05
2018-01-27T03:56:44.258Z,7.05
2018-01-27T03:57:44.237Z,7.00
2018-01-27T03:58:44.229Z,7.11
2018-01-27T03:59:44.215Z,7.05
2018-01-27T04:00:44.204Z,7.04
2018-01-27T04:01:44.184Z,7.01
2018-01-27T04:02:44.166Z,7.05
2018-01-27T04:03:44.150Z,6.99
2018-01-27T04:04:44.137Z,7.14
2018-01-27T04:05:44.125Z,7.19
2018-01-27T04:06:44.105Z,7.24
2018-01-27T04:07:44.090Z,7.24
2018-01-27T04:08:44.076Z,7.26
2018-01-27T04:09:44.062Z,7.16
2018-01-27T04:10:44.047Z,7.11
2018-01-27T04:11:44.033Z,7.09
2018-01-27T04:12:44.019Z,7.11
2018-01-27T04:13:44.002Z,7.04
2018-01-27T04:14:43.992Z,7.00
2018-01-27T04:15:43.970Z,7.00
2018-01-27T04:16:43.963Z,7.08
2018-01-27T04:17:43.940Z,7.07
2018-01-27T04:18:43.929Z,7.05
2018-01-27T04:19:43.911Z,7.04
2018-01-27T04:20:43.905Z,7.05
2018-01-27T04:21:43.883Z,7.01
2018-01-27T04:22:43.866Z,6.99
2018-01-27T04:23:43.851Z,7.09
2018-01-27T04:24:43.837Z,7.12
2018-01-27T04:25:43.822Z,7.00
2018-01-27T04:26:43.811Z,7.04
2018-01-27T04:27:43.792Z,7.15
2018-01-27T04:28:43.779Z,7.08
2018-01-27T04:29:43.768Z,7.09
2018-01-27T04:30:43.776Z,7.16
2018-01-27T04:31:43.734Z,7.08
2018-01-27T04:32:43.719Z,6.99
2018-01-27T04:33:43.705Z,7.14
2018-01-27T04:34:43.696Z,7.00
2018-01-27T04:35:43.682Z,7.07
2018-01-27T04:36:43.661Z,7.01
2018-01-27T04:37:43.644Z,7.01
2018-01-27T04:38:43.631Z,7.05
2018-01-27T04:39:43.617Z,7.00
2018-01-27T04:40:43.603Z,7.04
2018-01-27T04:41:43.585Z,6.96
2018-01-27T04:42:43.572Z,7.01
2018-01-27T04:43:43.556Z,7.15
2018-01-27T04:44:43.545Z,7.01
2018-01-27T04:45:43.533Z,7.14
2018-01-27T04:46:43.513Z,7.07
2018-01-27T04:47:43.499Z,7.12
2018-01-27T04:48:43.484Z,7.01
2018-01-27T04:49:43.469Z,7.15
2018-01-27T04:50:43.456Z,7.15
2018-01-27T04:51:43.442Z,7.12
2018-01-27T04:52:43.432Z,7.16
2018-01-27T04:53:43.413Z,7.16
2018-01-27T04:54:43.405Z,7.12
2018-01-27T04:55:43.388Z,7.12
2018-01-27T04:56:43.369Z,7.18
2018-01-27T04:57:43.361Z,7.19
2018-01-27T04:58:43.341Z,7.16
2018-01-27T04:59:43.326Z,7.23
2018-01-27T05:00:43.314Z,7.29
2018-01-27T05:01:43.298Z,7.27
2018-01-27T05:02:43.282Z,7.19
2018-01-27T05:03:43.268Z,7.21
2018-01-27T05:04:43.265Z,7.30
2018-01-27T05:05:43.244Z,7.27
2018-01-27T05:06:43.224Z,7.19
2018-01-27T05:07:43.208Z,7.29
2018-01-27T05:08:43.197Z,7.21
2018-01-27T05:09:43.177Z,7.24
2018-01-27T05:10:43.164Z,7.23
2018-01-27T05:11:43.158Z,7.24
2018-01-27T05:12:43.136Z,7.23
2018-01-27T05:13:43.127Z,7.24
2018-01-27T05:14:43.113Z,7.29
2018-01-27T05:15:43.096Z,7.15
2018-01-27T05:16:43.078Z,7.19
2018-01-27T05:17:43.065Z,7.21
2018-01-27T05:18:43.047Z,7.21
2018-01-27T05:19:43.035Z,7.29
2018-01-27T05:20:43.023Z,7.27
2018-01-27T05:21:43.006Z,7.23
2018-01-27T05:22:42.995Z,7.23
2018-01-27T05:23:42.975Z,7.11
2018-01-27T05:24:42.961Z,7.12
2018-01-27T05:25:42.945Z,6.97
2018-01-27T05:26:42.970Z,7.00
2018-01-27T05:28:42.901Z,6.90
2018-01-27T05:29:42.976Z,6.87
2018-01-27T05:30:42.889Z,6.90
2018-01-27T05:31:42.856Z,6.83
2018-01-27T05:32:42.842Z,6.82
2018-01-27T05:33:42.835Z,6.89
2018-01-27T05:34:42.814Z,6.81
2018-01-27T05:35:42.796Z,6.90
2018-01-27T05:36:42.789Z,6.89
2018-01-27T05:37:42.802Z,6.93
2018-01-27T05:38:42.753Z,6.93
2018-01-27T05:39:42.738Z,6.96
2018-01-27T05:40:42.724Z,6.94
2018-01-27T05:41:42.765Z,6.90
2018-01-27T05:42:42.743Z,6.91
2018-01-27T05:43:42.680Z,6.90
2018-01-27T05:44:42.663Z,6.93
2018-01-27T05:45:42.650Z,6.93
2018-01-27T05:46:42.638Z,6.89
2018-01-27T05:47:42.626Z,6.91
2018-01-27T05:48:42.606Z,6.91
2018-01-27T05:49:42.589Z,6.89
2018-01-27T05:50:42.578Z,6.87
2018-01-27T05:51:42.568Z,6.93
2018-01-27T05:52:42.545Z,6.94
2018-01-27T05:53:42.530Z,6.87
2018-01-27T05:54:42.522Z,6.94
2018-01-27T05:55:42.501Z,6.90
2018-01-27T05:56:42.490Z,7.01
2018-01-27T05:57:42.477Z,7.08
2018-01-27T05:58:42.458Z,7.08
2018-01-27T05:59:42.442Z,7.05
2018-01-27T06:00:42.426Z,7.00
2018-01-27T06:01:42.411Z,7.04
2018-01-27T06:02:42.403Z,7.00
2018-01-27T06:03:42.384Z,7.09
2018-01-27T06:04:42.372Z,7.00
2018-01-27T06:05:42.353Z,7.08
2018-01-27T06:06:42.338Z,7.09
2018-01-27T06:07:42.322Z,7.08
2018-01-27T06:08:42.314Z,7.04
2018-01-27T06:09:42.291Z,7.09
2018-01-27T06:10:42.277Z,7.14
2018-01-27T06:11:42.265Z,7.11
2018-01-27T06:12:42.255Z,7.16
2018-01-27T06:13:42.236Z,7.12
2018-01-27T06:14:42.226Z,7.15
2018-01-27T06:15:42.206Z,7.08
2018-01-27T06:16:42.196Z,7.23
2018-01-27T06:17:42.177Z,7.19
2018-01-27T06:18:42.163Z,7.15
2018-01-27T06:19:42.155Z,7.09
2018-01-27T06:20:42.133Z,7.16
2018-01-27T06:21:42.116Z,7.18
2018-01-27T06:22:42.102Z,7.12
2018-01-27T06:23:42.091Z,7.12
2018-01-27T06:24:42.074Z,7.12
2018-01-27T06:25:42.059Z,7.16
2018-01-27T06:26:42.048Z,7.09
2018-01-27T06:27:42.030Z,7.08
2018-01-27T06:28:42.016Z,7.11
2018-01-27T06:29:42.000Z,7.11
2018-01-27T06:30:41.991Z,7.01
2018-01-27T06:31:41.975Z,7.00
2018-01-27T06:32:41.955Z,6.97
2018-01-27T06:33:41.940Z,6.94
2018-01-27T06:34:41.925Z,6.94
2018-01-27T06:35:41.911Z,7.01
2018-01-27T06:36:41.896Z,6.94
2018-01-27T06:37:41.880Z,6.97
2018-01-27T06:38:41.864Z,7.00
2018-01-27T06:39:41.852Z,7.00
2018-01-27T06:40:41.835Z,7.04
2018-01-27T06:41:41.823Z,6.94
2018-01-27T06:42:41.811Z,6.97
2018-01-27T06:43:41.801Z,6.97
2018-01-27T06:44:41.794Z,6.94
2018-01-27T06:45:41.786Z,7.04
2018-01-27T06:46:41.757Z,6.94
2018-01-27T06:47:41.739Z,7.01
2018-01-27T06:48:41.716Z,6.96
2018-01-27T06:49:41.703Z,6.94
2018-01-27T06:50:41.703Z,6.91
2018-01-27T06:51:41.679Z,6.91
2018-01-27T06:52:41.663Z,6.96
2018-01-27T06:53:41.649Z,7.05
2018-01-27T06:54:41.636Z,7.08
2018-01-27T06:55:41.619Z,6.99
2018-01-27T06:56:41.604Z,6.99
2018-01-27T06:57:41.593Z,7.05
2018-01-27T06:58:41.571Z,7.07
2018-01-27T06:59:41.552Z,7.07
2018-01-27T07:00:41.541Z,7.09
2018-01-27T07:01:41.528Z,7.01
2018-01-27T07:02:41.507Z,7.00
2018-01-27T07:03:41.497Z,7.04
2018-01-27T07:04:41.539Z,7.11
2018-01-27T07:05:41.462Z,7.16
2018-01-27T07:06:41.448Z,7.12
2018-01-27T07:07:41.432Z,7.12
2018-01-27T07:08:41.421Z,7.11
2018-01-27T07:09:41.403Z,7.23
2018-01-27T07:10:41.389Z,7.24
2018-01-27T07:11:41.375Z,7.23
2018-01-27T07:12:41.358Z,7.26
2018-01-27T07:13:41.341Z,7.21
2018-01-27T07:14:41.327Z,7.27
2018-01-27T07:15:41.312Z,7.30
2018-01-27T07:16:41.306Z,7.29
2018-01-27T07:17:41.283Z,7.27
2018-01-27T07:18:41.269Z,7.23
2018-01-27T07:19:41.254Z,7.23
2018-01-27T07:20:41.243Z,7.19
2018-01-27T07:21:41.231Z,7.16
2018-01-27T07:22:41.210Z,7.19
2018-01-27T07:23:41.201Z,7.12
2018-01-27T07:24:41.186Z,7.19
2018-01-27T07:25:41.170Z,7.19
2018-01-27T07:26:41.158Z,7.15
2018-01-27T07:27:41.138Z,7.24
2018-01-27T07:28:41.121Z,7.11
2018-01-27T07:29:41.106Z,7.08
2018-01-27T07:30:41.091Z,7.15
2018-01-27T07:31:41.085Z,7.11
2018-01-27T07:32:41.064Z,7.11
2018-01-27T07:33:41.048Z,7.14
2018-01-27T07:34:41.037Z,6.99
2018-01-27T07:35:41.024Z,7.00
2018-01-27T07:36:41.009Z,7.01
2018-01-27T07:37:40.986Z,7.08
2018-01-27T07:38:40.973Z,7.08
2018-01-27T07:39:40.958Z,7.09
2018-01-27T07:40:40.943Z,7.08
2018-01-27T07:41:40.928Z,7.09
2018-01-27T07:42:40.916Z,7.11
2018-01-27T07:43:40.907Z,7.04
2018-01-27T07:44:40.890Z,7.05
2018-01-27T07:45:40.869Z,7.15
2018-01-27T07:46:40.856Z,7.18
2018-01-27T07:47:40.840Z,7.14
2018-01-27T07:48:40.826Z,7.11
2018-01-27T07:49:40.818Z,7.14
2018-01-27T07:50:40.802Z,7.15
2018-01-27T07:51:40.784Z,7.18
2018-01-27T07:52:40.766Z,7.18
2018-01-27T07:53:40.752Z,7.16
2018-01-27T07:54:40.738Z,7.23
2018-01-27T07:55:40.727Z,7.21
2018-01-27T07:56:40.707Z,7.30
2018-01-27T07:57:40.696Z,7.32
2018-01-27T07:58:40.701Z,7.27
2018-01-27T07:59:40.663Z,7.24
2018-01-27T08:00:40.649Z,7.39
2018-01-27T08:01:40.632Z,7.30
2018-01-27T08:02:40.625Z,7.33
2018-01-27T08:03:40.603Z,7.34
2018-01-27T08:04:40.592Z,7.45
2018-01-27T08:05:40.573Z,7.45
2018-01-27T08:06:40.565Z,7.44
2018-01-27T08:07:40.545Z,7.39
2018-01-27T08:08:40.539Z,7.47
2018-01-27T08:09:40.515Z,7.45
2018-01-27T08:10:40.499Z,7.52
2018-01-27T08:11:40.486Z,7.54
2018-01-27T08:12:40.493Z,7.66
2018-01-27T08:13:40.462Z,7.62
2018-01-27T08:14:40.447Z,7.63
2018-01-27T08:15:40.432Z,7.57
2018-01-27T08:16:40.422Z,7.54
2018-01-27T08:17:40.404Z,7.60
2018-01-27T08:18:40.391Z,7.70
2018-01-27T08:19:40.370Z,7.63
2018-01-27T08:20:40.357Z,7.69
2018-01-27T08:21:40.346Z,7.70
2018-01-27T08:22:40.331Z,7.67
2018-01-27T08:23:40.382Z,7.71
2018-01-27T08:24:40.301Z,7.76
2018-01-27T08:25:40.283Z,7.71
2018-01-27T08:26:40.269Z,7.70
2018-01-27T08:27:40.257Z,7.69
2018-01-27T08:28:40.241Z,7.70
2018-01-27T08:29:40.227Z,7.57
2018-01-27T08:30:40.214Z,7.63
2018-01-27T08:31:40.203Z,7.67
2018-01-27T08:32:40.193Z,7.58
2018-01-27T08:33:40.175Z,7.67
2018-01-27T08:34:40.156Z,7.62
2018-01-27T08:35:40.140Z,7.69
2018-01-27T08:36:40.127Z,7.62
2018-01-27T08:37:40.112Z,7.54
2018-01-27T08:38:40.097Z,7.70
2018-01-27T08:39:40.090Z,7.55
2018-01-27T08:40:40.073Z,7.52
2018-01-27T08:41:40.053Z,7.57
2018-01-27T08:42:40.042Z,7.52
2018-01-27T08:43:40.031Z,7.44
2018-01-27T08:44:40.013Z,7.50
2018-01-27T08:45:40.006Z,7.44
2018-01-27T08:46:39.982Z,7.54
2018-01-27T08:47:39.973Z,7.50
2018-01-27T08:48:39.959Z,7.37
2018-01-27T08:49:39.938Z,7.44
2018-01-27T08:50:39.926Z,7.44
2018-01-27T08:51:39.914Z,7.50
2018-01-27T08:52:39.948Z,7.44
2018-01-27T08:53:39.887Z,7.55
2018-01-27T08:54:39.870Z,7.44
2018-01-27T08:55:39.854Z,7.54
2018-01-27T08:56:39.839Z,7.50
2018-01-27T08:57:39.826Z,7.44
2018-01-27T08:58:39.810Z,7.39
2018-01-27T08:59:39.794Z,7.55
2018-01-27T09:00:39.782Z,7.48
2018-01-27T09:01:39.765Z,7.54
2018-01-27T09:02:39.752Z,7.45
2018-01-27T09:03:39.744Z,7.48
2018-01-27T09:04:39.724Z,7.42
2018-01-27T09:05:39.716Z,7.47
2018-01-27T09:06:39.700Z,7.54
2018-01-27T09:07:39.682Z,7.54
2018-01-27T09:08:39.667Z,7.52
2018-01-27T09:09:39.650Z,7.55
2018-01-27T09:10:39.640Z,7.57
2018-01-27T09:11:39.631Z,7.52
2018-01-27T09:12:39.607Z,7.45
2018-01-27T09:13:39.593Z,7.48
2018-01-27T09:14:39.586Z,7.52
2018-01-27T09:15:39.572Z,7.42
2018-01-27T09:16:39.551Z,7.55
2018-01-27T09:17:39.537Z,7.58
2018-01-27T09:18:39.522Z,7.66
2018-01-27T09:19:39.514Z,7.63
2018-01-27T09:20:39.500Z,7.67
2018-01-27T09:21:39.477Z,7.66
2018-01-27T09:22:39.466Z,7.66
2018-01-27T09:23:39.452Z,7.70
2018-01-27T09:24:39.436Z,7.73
2018-01-27T09:25:39.422Z,7.79
2018-01-27T09:26:39.410Z,7.77
2018-01-27T09:27:39.400Z,7.88
2018-01-27T09:28:39.381Z,7.89
2018-01-27T09:29:39.365Z,7.95
2018-01-27T09:30:39.357Z,7.99
2018-01-27T09:31:39.340Z,8.06
2018-01-27T09:32:39.329Z,8.10
2018-01-27T09:33:39.314Z,8.04
2018-01-27T09:34:39.296Z,8.02
2018-01-27T09:35:39.282Z,8.09
2018-01-27T09:36:39.267Z,8.07
2018-01-27T09:37:39.252Z,8.09
2018-01-27T09:38:39.238Z,8.12
2018-01-27T09:39:39.227Z,8.17
2018-01-27T09:40:39.213Z,8.17
2018-01-27T09:41:39.204Z,8.20
2018-01-27T09:42:39.231Z,8.24
2018-01-27T09:43:39.176Z,8.24
2018-01-27T09:44:39.157Z,8.25
2018-01-27T09:45:39.143Z,8.22
2018-01-27T09:46:39.128Z,8.27
2018-01-27T09:47:39.116Z,8.27
2018-01-27T09:48:39.103Z,8.24
2018-01-27T09:49:39.090Z,8.21
2018-01-27T09:50:39.075Z,8.25
2018-01-27T09:51:39.067Z,8.18
2018-01-27T09:52:39.053Z,8.21
2018-01-27T09:53:39.033Z,8.21
2018-01-27T09:54:39.022Z,8.14
2018-01-27T09:55:39.048Z,8.13
2018-01-27T09:56:38.993Z,8.18
2018-01-27T09:57:38.980Z,8.14
2018-01-27T09:58:38.969Z,8.22
2018-01-27T09:59:38.957Z,8.18
2018-01-27T10:00:38.938Z,8.22
2018-01-27T10:01:38.924Z,8.25
2018-01-27T10:02:38.913Z,8.20
2018-01-27T10:03:38.895Z,8.12
2018-01-27T10:04:38.892Z,8.29
2018-01-27T10:05:38.876Z,8.14
2018-01-27T10:06:38.856Z,8.21
2018-01-27T10:07:38.842Z,8.24
2018-01-27T10:08:38.831Z,8.32
2018-01-27T10:09:38.814Z,8.36
2018-01-27T10:10:38.805Z,8.29
2018-01-27T10:11:38.788Z,8.32
2018-01-27T10:12:38.774Z,8.25
2018-01-27T10:13:38.760Z,8.28
2018-01-27T10:14:38.747Z,8.32
2018-01-27T10:15:38.737Z,8.37
2018-01-27T10:16:38.723Z,8.31
2018-01-27T10:17:38.704Z,8.34
2018-01-27T10:18:38.690Z,8.37
2018-01-27T10:19:38.676Z,8.40
2018-01-27T10:20:38.665Z,8.36
2018-01-27T10:21:38.655Z,8.36
2018-01-27T10:22:38.646Z,8.36
2018-01-27T10:23:38.629Z,8.42
2018-01-27T10:24:38.611Z,8.49
2018-01-27T10:25:38.601Z,8.45
2018-01-27T10:26:38.581Z,8.55
2018-01-27T10:27:38.569Z,8.55
2018-01-27T10:28:38.555Z,8.61
2018-01-27T10:29:38.540Z,8.67
2018-01-27T10:30:38.526Z,8.71
2018-01-27T10:31:38.515Z,8.71
2018-01-27T10:32:38.502Z,8.75
2018-01-27T10:33:38.487Z,8.71
2018-01-27T10:34:38.474Z,8.76
2018-01-27T10:35:38.459Z,8.79
2018-01-27T10:36:38.449Z,8.79
2018-01-27T10:37:38.439Z,8.78
2018-01-27T10:38:38.421Z,8.75
2018-01-27T10:39:38.406Z,8.70
2018-01-27T10:40:38.393Z,8.43
2018-01-27T10:41:38.384Z,8.34
2018-01-27T10:42:38.371Z,8.43
2018-01-27T10:43:38.355Z,8.50
2018-01-27T10:44:38.340Z,8.55
2018-01-27T10:45:38.329Z,8.52
2018-01-27T10:46:38.313Z,8.60
2018-01-27T10:47:38.298Z,8.65
2018-01-27T10:48:38.291Z,8.70
2018-01-27T10:49:38.282Z,8.70
2018-01-27T10:50:38.258Z,8.83
2018-01-27T10:51:38.247Z,8.88
2018-01-27T10:52:38.238Z,8.88
2018-01-27T10:53:38.218Z,8.89
2018-01-27T10:54:38.210Z,9.00
2018-01-27T10:55:38.193Z,9.04
2018-01-27T10:56:38.180Z,9.01
2018-01-27T10:57:38.164Z,8.97
2018-01-27T10:58:38.152Z,8.94
2018-01-27T10:59:38.139Z,8.67
2018-01-27T11:00:38.128Z,8.79
2018-01-27T11:01:38.110Z,8.88
2018-01-27T11:02:38.102Z,8.83
2018-01-27T11:03:38.085Z,8.71
2018-01-27T11:04:38.078Z,8.78
2018-01-27T11:05:38.062Z,8.80
2018-01-27T11:06:38.051Z,8.82
2018-01-27T11:07:38.032Z,8.80
2018-01-27T11:08:38.022Z,8.78
2018-01-27T11:09:38.003Z,8.65
2018-01-27T11:10:37.990Z,8.78
2018-01-27T11:11:37.983Z,8.86
2018-01-27T11:12:37.970Z,8.88
2018-01-27T11:13:37.956Z,8.94
2018-01-27T11:14:37.937Z,8.97
2018-01-27T11:15:37.925Z,9.00
2018-01-27T11:16:37.909Z,9.20
2018-01-27T11:17:37.894Z,9.20
2018-01-27T11:18:37.887Z,9.22
2018-01-27T11:19:37.922Z,9.35
2018-01-27T11:20:37.856Z,9.27
2018-01-27T11:21:37.845Z,9.30
2018-01-27T11:22:37.829Z,9.08
2018-01-27T11:23:37.822Z,8.73
2018-01-27T11:24:37.805Z,8.63
2018-01-27T11:25:37.795Z,8.61
2018-01-27T11:26:37.778Z,8.52
2018-01-27T11:27:37.764Z,8.54
2018-01-27T11:28:37.752Z,8.57
2018-01-27T11:29:37.736Z,8.54
2018-01-27T11:30:37.732Z,8.63
2018-01-27T11:31:37.713Z,8.63
2018-01-27T11:32:37.697Z,8.54
2018-01-27T11:33:37.682Z,8.47
2018-01-27T11:34:37.672Z,8.39
2018-01-27T11:35:37.657Z,8.43
2018-01-27T11:36:37.647Z,8.36
2018-01-27T11:37:37.630Z,8.39
2018-01-27T11:38:37.621Z,8.37
2018-01-27T11:39:37.607Z,8.46
2018-01-27T11:40:37.590Z,8.47
2018-01-27T11:41:37.574Z,8.46
2018-01-27T11:42:37.563Z,8.47
2018-01-27T11:43:37.559Z,8.67
2018-01-27T11:44:37.537Z,8.61
2018-01-27T11:45:37.525Z,8.68
2018-01-27T11:46:37.508Z,8.70
2018-01-27T11:47:37.494Z,8.71
2018-01-27T11:48:37.485Z,8.79
2018-01-27T11:49:37.465Z,8.80
2018-01-27T11:50:37.458Z,8.86
2018-01-27T11:51:37.443Z,8.86
2018-01-27T11:52:37.425Z,8.79
2018-01-27T11:53:37.413Z,8.83
2018-01-27T11:54:37.402Z,8.88
2018-01-27T11:55:37.385Z,8.85
2018-01-27T11:56:37.379Z,8.89
2018-01-27T11:57:37.365Z,8.96
2018-01-27T11:58:37.345Z,9.03
2018-01-27T11:59:37.332Z,9.08
2018-01-27T12:00:37.322Z,9.01
2018-01-27T12:01:37.306Z,9.08
2018-01-27T12:02:37.299Z,9.08
2018-01-27T12:03:37.286Z,9.17
2018-01-27T12:04:37.268Z,9.23
2018-01-27T12:05:37.259Z,9.24
2018-01-27T12:06:37.241Z,9.16
2018-01-27T12:07:37.228Z,9.27
2018-01-27T12:08:37.215Z,9.30
2018-01-27T12:09:37.202Z,9.00
2018-01-27T12:10:37.189Z,9.13
2018-01-27T12:11:37.183Z,9.17
2018-01-27T12:12:37.166Z,9.16
2018-01-27T12:13:37.161Z,9.06
2018-01-27T12:14:37.142Z,9.06
2018-01-27T12:15:37.128Z,9.13
2018-01-27T12:16:37.112Z,9.15
2018-01-27T12:17:37.104Z,9.10
2018-01-27T12:18:37.086Z,9.12
2018-01-27T12:19:37.070Z,9.13
2018-01-27T12:20:37.079Z,9.17
2018-01-27T12:21:37.117Z,8.98
2018-01-27T12:22:37.090Z,9.16
2018-01-27T12:23:37.019Z,9.15
2018-01-27T12:24:37.006Z,9.10
2018-01-27T12:25:36.997Z,9.20
2018-01-27T12:26:36.981Z,9.16
2018-01-27T12:27:36.971Z,9.16
2018-01-27T12:28:36.958Z,9.15
2018-01-27T12:29:36.950Z,9.10
2018-01-27T12:30:36.933Z,9.19
2018-01-27T12:31:36.922Z,9.13
2018-01-27T12:32:36.913Z,9.23
2018-01-27T12:33:36.906Z,9.20
2018-01-27T12:34:36.882Z,9.13
2018-01-27T12:35:36.882Z,9.24
2018-01-27T12:36:36.859Z,9.20
2018-01-27T12:37:36.840Z,9.22
2018-01-27T12:38:36.838Z,9.26
2018-01-27T12:39:36.815Z,9.24
2018-01-27T12:40:36.803Z,9.27
2018-01-27T12:41:36.790Z,9.31
2018-01-27T12:42:36.775Z,9.26
2018-01-27T12:43:36.763Z,9.45
2018-01-27T12:44:36.749Z,9.40
2018-01-27T12:45:36.738Z,9.44
2018-01-27T12:46:36.734Z,9.42
2018-01-27T12:47:36.714Z,9.55
2018-01-27T12:48:36.700Z,9.59
2018-01-27T12:49:36.690Z,9.58
2018-01-27T12:50:36.680Z,9.62
2018-01-27T12:51:36.663Z,9.58
2018-01-27T12:52:36.654Z,9.65
2018-01-27T12:53:36.641Z,9.63
2018-01-27T12:54:36.625Z,9.71
2018-01-27T12:55:36.613Z,9.74
2018-01-27T12:56:36.617Z,9.70
2018-01-27T12:57:36.593Z,9.67
2018-01-27T12:58:36.577Z,9.70
2018-01-27T12:59:36.562Z,9.74
2018-01-27T13:00:36.558Z,9.77
2018-01-27T13:01:36.539Z,9.73
2018-01-27T13:02:36.528Z,9.73
2018-01-27T13:03:36.513Z,9.73
2018-01-27T13:04:36.511Z,9.68
2018-01-27T13:05:36.488Z,9.67
2018-01-27T13:06:36.475Z,9.63
2018-01-27T13:07:36.470Z,9.63
2018-01-27T13:08:36.458Z,9.68
2018-01-27T13:09:36.439Z,9.63
2018-01-27T13:10:36.427Z,9.68
2018-01-27T13:11:36.414Z,9.63
2018-01-27T13:12:36.404Z,9.67
2018-01-27T13:13:36.395Z,9.68
2018-01-27T13:14:36.378Z,9.75
2018-01-27T13:15:36.370Z,9.73
2018-01-27T13:16:36.353Z,9.68
2018-01-27T13:17:36.357Z,9.77
2018-01-27T13:18:36.330Z,9.65
2018-01-27T13:19:36.324Z,9.62